createdAt,value
2018-08-08T00:02:22.394Z,35.41
2018-08-08T00:04:50.810Z,34.77
2018-08-08T00:07:19.186Z,34.86
2018-08-08T00:09:47.585Z,34.81
2018-08-08T00:12:15.994Z,35.52
2018-08-08T00:14:44.380Z,34.58
2018-08-08T00:17:12.782Z,34.98
2018-08-08T00:19:41.209Z,34.67
2018-08-08T00:22:09.569Z,34.67
2018-08-08T00:24:37.967Z,35.40
2018-08-08T00:27:06.509Z,35.41
2018-08-08T00:29:34.901Z,34.71
2018-08-08T00:32:03.445Z,35.08
2018-08-08T00:34:31.853Z,35.70
2018-08-08T00:37:00.422Z,34.99
2018-08-08T00:39:28.813Z,34.96
2018-08-08T00:41:57.191Z,36.11
2018-08-08T00:44:25.594Z,34.99
2018-08-08T00:46:53.978Z,35.34
2018-08-08T00:49:22.377Z,35.35
2018-08-08T00:51:50.757Z,36.43
2018-08-08T00:54:19.157Z,36.16
2018-08-08T00:56:47.526Z,35.72
2018-08-08T00:59:15.922Z,36.38
2018-08-08T01:01:44.299Z,35.62
2018-08-08T01:04:12.689Z,35.23
2018-08-08T01:06:41.079Z,35.85
2018-08-08T01:09:10.177Z,36.19
2018-08-08T01:11:39.150Z,36.85
2018-08-08T01:14:07.605Z,35.79
2018-08-08T01:16:35.979Z,36.58
2018-08-08T01:19:04.379Z,36.72
2018-08-08T01:21:32.773Z,36.34
2018-08-08T01:24:01.167Z,36.91
2018-08-08T01:26:29.569Z,36.85
2018-08-08T01:28:57.942Z,36.87
2018-08-08T01:31:26.377Z,36.61
2018-08-08T01:33:55.173Z,37.18
2018-08-08T01:36:23.886Z,36.13
2018-08-08T01:38:52.545Z,37.17
2018-08-08T01:41:21.061Z,36.08
2018-08-08T01:43:49.449Z,36.58
2018-08-08T01:46:17.853Z,37.48
2018-08-08T01:48:46.233Z,36.73
2018-08-08T01:51:14.631Z,37.38
2018-08-08T01:53:43.013Z,37.52
2018-08-08T01:56:11.409Z,37.14
2018-08-08T01:58:39.831Z,36.99
2018-08-08T02:01:08.213Z,36.80
2018-08-08T02:03:36.579Z,37.44
2018-08-08T02:06:05.045Z,37.03
2018-08-08T02:08:34.013Z,37.16
2018-08-08T02:11:02.425Z,37.75
2018-08-08T02:13:30.828Z,36.83
2018-08-08T02:15:59.491Z,37.23
2018-08-08T02:18:27.859Z,36.71
2018-08-08T02:20:56.309Z,36.96
2018-08-08T02:23:24.677Z,37.07
2018-08-08T02:25:53.068Z,37.56
2018-08-08T02:28:21.426Z,36.99
2018-08-08T02:30:49.813Z,36.97
2018-08-08T02:33:18.182Z,37.98
2018-08-08T02:35:46.594Z,37.96
2018-08-08T02:38:14.962Z,38.20
2018-08-08T02:40:43.369Z,37.79
2018-08-08T02:43:11.738Z,38.21
2018-08-08T02:45:40.142Z,37.66
2018-08-08T02:48:08.513Z,37.48
2018-08-08T02:50:36.895Z,37.62
2018-08-08T02:53:05.289Z,37.32
2018-08-08T02:55:33.681Z,37.40
2018-08-08T02:58:02.051Z,37.54
2018-08-08T03:00:30.450Z,38.16
2018-08-08T03:02:58.823Z,37.33
2018-08-08T03:05:27.221Z,38.31
2018-08-08T03:07:55.629Z,37.47
2018-08-08T03:10:24.034Z,38.43
2018-08-08T03:12:52.421Z,38.35
2018-08-08T03:15:21.069Z,38.43
2018-08-08T03:17:49.474Z,37.55
2018-08-08T03:20:18.035Z,37.51
2018-08-08T03:22:47.461Z,37.70
2018-08-08T03:25:16.741Z,38.30
2018-08-08T03:27:45.798Z,37.81
2018-08-08T03:30:18.032Z,38.56
2018-08-08T03:32:46.446Z,37.70
2018-08-08T03:35:15.272Z,38.81
2018-08-08T03:37:43.696Z,37.92
2018-08-08T03:40:13.185Z,37.98
2018-08-08T03:42:41.727Z,38.29
2018-08-08T03:45:11.182Z,37.96
2018-08-08T03:47:40.053Z,39.11
2018-08-08T03:50:09.745Z,38.31
2018-08-08T03:52:38.449Z,38.95
2018-08-08T03:55:08.092Z,37.99
2018-08-08T03:57:36.456Z,38.26
2018-08-08T04:00:08.135Z,38.31
2018-08-08T04:02:36.573Z,38.97
2018-08-08T04:05:05.949Z,38.14
2018-08-08T04:07:34.761Z,38.02
2018-08-08T04:10:03.255Z,38.74
2018-08-08T04:12:31.662Z,37.97
2018-08-08T04:15:00.052Z,38.48
2018-08-08T04:17:28.461Z,37.88
2018-08-08T04:19:56.973Z,37.54
2018-08-08T04:22:25.357Z,38.30
2018-08-08T04:24:53.722Z,37.54
2018-08-08T04:27:22.130Z,38.28
2018-08-08T04:29:50.865Z,37.78
2018-08-08T04:32:19.377Z,37.57
2018-08-08T04:34:47.737Z,37.08
2018-08-08T04:37:16.124Z,37.65
2018-08-08T04:39:44.486Z,36.57
2018-08-08T04:42:12.888Z,37.28
2018-08-08T04:44:41.263Z,37.08
2018-08-08T04:47:09.753Z,37.00
2018-08-08T04:49:38.117Z,36.51
2018-08-08T04:52:07.158Z,36.28
2018-08-08T04:54:35.517Z,36.39
2018-08-08T04:57:04.194Z,37.07
2018-08-08T04:59:32.561Z,36.98
2018-08-08T05:02:00.957Z,37.03
2018-08-08T05:04:29.316Z,37.16
2018-08-08T05:06:57.715Z,37.25
2018-08-08T05:09:26.082Z,36.79
2018-08-08T05:11:54.489Z,36.99
2018-08-08T05:14:22.845Z,37.04
2018-08-08T05:16:51.975Z,36.18
2018-08-08T05:19:20.341Z,37.01
2018-08-08T05:21:48.755Z,37.01
2018-08-08T05:24:17.143Z,36.48
2018-08-08T05:26:45.567Z,36.40
2018-08-08T05:29:13.937Z,35.55
2018-08-08T05:31:42.383Z,35.65
2018-08-08T05:34:42.813Z,35.00
2018-08-08T05:37:11.230Z,35.33
2018-08-08T05:39:39.629Z,35.50
2018-08-08T05:42:08.017Z,34.65
2018-08-08T05:44:36.388Z,35.32
2018-08-08T05:47:04.797Z,34.86
2018-08-08T05:49:33.166Z,35.78
2018-08-08T05:52:01.546Z,35.61
2018-08-08T05:54:29.920Z,35.53
2018-08-08T05:56:58.289Z,35.44
2018-08-08T05:59:26.682Z,35.43
2018-08-08T06:01:55.103Z,35.53
2018-08-08T06:04:23.490Z,35.23
2018-08-08T06:06:51.858Z,34.37
2018-08-08T06:09:20.247Z,35.16
2018-08-08T06:11:48.721Z,34.44
2018-08-08T06:14:17.132Z,34.84
2018-08-08T06:16:45.506Z,34.44
2018-08-08T06:19:13.898Z,33.92
2018-08-08T06:21:42.269Z,34.20
2018-08-08T06:24:10.671Z,33.75
2018-08-08T06:26:39.037Z,34.63
2018-08-08T06:29:07.429Z,34.76
2018-08-08T06:31:35.826Z,34.26
2018-08-08T06:34:04.212Z,32.96
2018-08-08T06:36:32.582Z,34.09
2018-08-08T06:39:00.998Z,33.06
2018-08-08T06:41:29.381Z,33.36
2018-08-08T06:43:57.780Z,32.68
2018-08-08T06:46:26.169Z,34.24
2018-08-08T06:48:54.549Z,33.40
2018-08-08T06:51:22.917Z,33.96
2018-08-08T06:53:51.310Z,33.79
2018-08-08T06:56:19.682Z,33.60
2018-08-08T06:58:48.065Z,33.47
2018-08-08T07:01:16.446Z,33.11
2018-08-08T07:03:44.829Z,33.40
2018-08-08T07:06:13.202Z,32.60
2018-08-08T07:08:41.586Z,32.76
2018-08-08T07:11:09.978Z,32.75
2018-08-08T07:13:38.390Z,33.02
2018-08-08T07:16:06.774Z,32.50
2018-08-08T07:18:35.163Z,33.34
2018-08-08T07:21:03.533Z,32.43
2018-08-08T07:23:31.943Z,33.03
2018-08-08T07:26:00.313Z,32.00
2018-08-08T07:28:28.717Z,32.08
2018-08-08T07:30:57.140Z,32.78
2018-08-08T07:33:25.526Z,32.67
2018-08-08T07:35:53.891Z,32.78
2018-08-08T07:38:22.379Z,32.68
2018-08-08T07:40:50.767Z,32.11
2018-08-08T07:43:19.159Z,32.86
2018-08-08T07:45:47.577Z,32.49
2018-08-08T07:48:16.017Z,31.33
2018-08-08T07:50:44.393Z,32.60
2018-08-08T07:53:12.769Z,31.37
2018-08-08T07:55:41.181Z,31.78
2018-08-08T07:58:09.687Z,31.57
2018-08-08T08:00:37.991Z,31.24
2018-08-08T08:03:06.386Z,31.97
2018-08-08T08:05:34.793Z,31.84
2018-08-08T08:08:03.168Z,31.54
2018-08-08T08:10:31.587Z,30.96
2018-08-08T08:12:59.987Z,30.46
2018-08-08T08:15:28.404Z,30.51
2018-08-08T08:17:56.798Z,30.35
2018-08-08T08:20:25.201Z,30.52
2018-08-08T08:22:53.574Z,31.55
2018-08-08T08:25:22.025Z,31.34
2018-08-08T08:27:50.368Z,30.50
2018-08-08T08:30:19.705Z,31.26
2018-08-08T08:32:48.265Z,30.40
2018-08-08T08:35:16.670Z,30.87
2018-08-08T08:37:45.048Z,30.76
2018-08-08T08:40:14.047Z,30.47
2018-08-08T08:42:43.110Z,30.16
2018-08-08T08:45:11.623Z,29.92
2018-08-08T08:47:40.002Z,29.29
2018-08-08T08:50:08.856Z,29.96
2018-08-08T08:52:37.265Z,29.99
2018-08-08T08:55:06.117Z,29.59
2018-08-08T08:57:34.613Z,30.28
2018-08-08T09:00:03.022Z,30.19
2018-08-08T09:02:31.407Z,29.45
2018-08-08T09:04:59.806Z,28.84
2018-08-08T09:07:28.224Z,29.53
2018-08-08T09:09:56.615Z,29.42
2018-08-08T09:12:25.015Z,28.68
2018-08-08T09:14:53.442Z,29.37
2018-08-08T09:17:21.814Z,29.63
2018-08-08T09:19:50.205Z,29.69
2018-08-08T09:22:18.614Z,29.66
2018-08-08T09:24:46.990Z,29.56
2018-08-08T09:27:15.387Z,29.90
2018-08-08T09:29:49.014Z,29.80
2018-08-08T09:32:17.402Z,29.73
2018-08-08T09:34:45.765Z,30.04
2018-08-08T09:37:14.145Z,28.87
2018-08-08T09:39:42.519Z,28.68
2018-08-08T09:42:10.956Z,28.71
2018-08-08T09:44:39.317Z,28.28
2018-08-08T09:47:07.958Z,27.84
2018-08-08T09:49:36.375Z,28.09
2018-08-08T09:52:04.843Z,26.72
2018-08-08T09:54:33.474Z,26.86
2018-08-08T09:57:01.899Z,26.78
2018-08-08T09:59:30.263Z,27.56
2018-08-08T10:02:04.047Z,25.74
2018-08-08T10:04:33.339Z,25.63
2018-08-08T10:07:03.278Z,26.45
2018-08-08T10:09:31.734Z,25.92
2018-08-08T10:12:00.158Z,25.98
2018-08-08T10:14:28.807Z,26.21
2018-08-08T10:16:57.203Z,26.21
2018-08-08T10:19:25.606Z,27.28
2018-08-08T10:21:54.041Z,26.45
2018-08-08T10:24:22.503Z,26.47
2018-08-08T10:26:50.882Z,26.89
2018-08-08T10:29:19.274Z,26.67
2018-08-08T10:31:47.650Z,26.69
2018-08-08T10:34:16.130Z,26.33
2018-08-08T10:36:44.504Z,25.71
2018-08-08T10:39:13.782Z,25.62
2018-08-08T10:41:42.401Z,26.06
2018-08-08T10:44:10.906Z,25.89
2018-08-08T10:46:39.346Z,25.29
2018-08-08T10:49:07.809Z,25.81
2018-08-08T10:51:36.169Z,25.32
2018-08-08T10:54:04.634Z,24.38
2018-08-08T10:56:33.069Z,24.91
2018-08-08T10:59:01.538Z,24.88
2018-08-08T11:01:29.915Z,25.15
2018-08-08T11:03:58.385Z,24.81
2018-08-08T11:06:26.825Z,24.78
2018-08-08T11:08:55.297Z,24.95
2018-08-08T11:11:23.748Z,24.51
2018-08-08T11:13:52.230Z,24.85
2018-08-08T11:16:20.941Z,24.86
2018-08-08T11:18:49.327Z,25.20
2018-08-08T11:21:17.774Z,25.50
2018-08-08T11:23:46.188Z,25.39
2018-08-08T11:26:14.618Z,24.96
2018-08-08T11:28:43.121Z,24.92
2018-08-08T11:31:11.561Z,24.83
2018-08-08T11:33:40.002Z,24.87
2018-08-08T11:36:08.382Z,24.20
2018-08-08T11:38:36.809Z,23.88
2018-08-08T11:41:05.308Z,24.48
2018-08-08T11:43:33.678Z,24.56
2018-08-08T11:46:02.134Z,25.30
2018-08-08T11:48:30.620Z,25.29
2018-08-08T11:50:59.073Z,25.11
2018-08-08T11:53:27.522Z,25.26
2018-08-08T11:55:55.999Z,25.04
2018-08-08T11:58:24.442Z,24.63
2018-08-08T12:00:52.897Z,24.59
2018-08-08T12:03:21.345Z,24.53
2018-08-08T12:05:49.797Z,24.58
2018-08-08T12:08:18.246Z,25.03
2018-08-08T12:10:46.710Z,23.98
2018-08-08T12:13:15.174Z,23.89
2018-08-08T12:15:43.644Z,23.68
2018-08-08T12:18:12.087Z,24.41
2018-08-08T12:20:40.541Z,24.63
2018-08-08T12:23:08.977Z,24.20
2018-08-08T12:25:37.459Z,24.28
2018-08-08T12:28:05.977Z,24.87
2018-08-08T12:30:34.449Z,25.40
2018-08-08T12:33:02.903Z,24.90
2018-08-08T12:35:31.528Z,24.74
2018-08-08T12:37:59.829Z,24.49
2018-08-08T12:40:28.358Z,24.59
2018-08-08T12:42:56.764Z,24.75
2018-08-08T12:45:25.246Z,24.32
2018-08-08T12:47:53.707Z,24.14
2018-08-08T12:50:22.177Z,24.90
2018-08-08T12:52:50.626Z,24.62
2018-08-08T12:55:19.201Z,24.57
2018-08-08T12:57:47.753Z,24.58
2018-08-08T13:00:16.232Z,23.76
2018-08-08T13:02:44.706Z,23.69
2018-08-08T13:05:13.188Z,23.28
2018-08-08T13:07:41.639Z,23.13
2018-08-08T13:10:10.108Z,22.94
2018-08-08T13:12:38.583Z,22.77
2018-08-08T13:15:08.169Z,23.56
2018-08-08T13:17:36.615Z,22.65
2018-08-08T13:20:05.618Z,23.32
2018-08-08T13:22:34.058Z,22.76
2018-08-08T13:25:02.545Z,23.31
2018-08-08T13:27:31.010Z,22.72
2018-08-08T13:29:59.473Z,22.51
2018-08-08T13:32:28.134Z,22.28
2018-08-08T13:34:56.565Z,22.40
2018-08-08T13:37:25.066Z,23.10
2018-08-08T13:39:53.494Z,22.28
2018-08-08T13:42:22.095Z,21.86
2018-08-08T13:44:50.538Z,21.96
2018-08-08T13:47:19.002Z,22.45
2018-08-08T13:49:47.433Z,21.34
2018-08-08T13:52:15.893Z,21.92
2018-08-08T13:54:44.326Z,21.85
2018-08-08T13:57:12.782Z,21.40
2018-08-08T13:59:41.218Z,21.11
2018-08-08T14:02:09.705Z,21.73
2018-08-08T14:04:38.145Z,21.02
2018-08-08T14:07:06.600Z,21.15
2018-08-08T14:09:35.044Z,21.20
2018-08-08T14:12:03.821Z,20.73
2018-08-08T14:14:32.418Z,20.43
2018-08-08T14:17:00.898Z,20.47
2018-08-08T14:19:29.340Z,20.17
2018-08-08T14:21:57.794Z,20.16
2018-08-08T14:24:26.225Z,19.75
2018-08-08T14:26:54.768Z,20.50
2018-08-08T14:29:23.157Z,20.43
2018-08-08T14:31:51.542Z,20.12
2018-08-08T14:34:20.062Z,19.90
2018-08-08T14:36:48.537Z,19.82
2018-08-08T14:39:17.020Z,20.81
2018-08-08T14:41:45.566Z,20.90
2018-08-08T14:44:14.011Z,20.61
2018-08-08T14:46:42.474Z,20.83
2018-08-08T14:49:11.474Z,20.53
2018-08-08T14:51:39.942Z,20.60
2018-08-08T14:54:08.415Z,20.66
2018-08-08T14:56:36.890Z,20.02
2018-08-08T14:59:05.357Z,21.10
2018-08-08T15:01:34.215Z,19.84
2018-08-08T15:04:02.662Z,19.70
2018-08-08T15:06:31.122Z,20.47
2018-08-08T15:08:59.573Z,20.79
2018-08-08T15:11:28.051Z,19.27
2018-08-08T15:13:56.534Z,19.42
2018-08-08T15:16:24.994Z,19.25
2018-08-08T15:18:53.446Z,19.86
2018-08-08T15:21:21.919Z,20.60
2018-08-08T15:23:50.358Z,20.23
2018-08-08T15:26:18.818Z,20.75
2018-08-08T15:28:47.255Z,20.84
2018-08-08T15:31:15.828Z,21.60
2018-08-08T15:33:44.193Z,21.33
2018-08-08T15:36:12.628Z,21.41
2018-08-08T15:38:41.094Z,21.41
2018-08-08T15:41:09.537Z,22.70
2018-08-08T15:43:38.001Z,22.58
2018-08-08T15:46:06.653Z,22.57
2018-08-08T15:48:35.121Z,22.55
2018-08-08T15:51:03.513Z,22.80
2018-08-08T15:53:32.012Z,23.58
2018-08-08T15:56:00.493Z,23.04
2018-08-08T15:58:28.949Z,23.90
2018-08-08T16:00:57.406Z,23.89
2018-08-08T16:03:25.870Z,23.94
2018-08-08T16:05:54.321Z,24.33
2018-08-08T16:08:22.781Z,25.01
2018-08-08T16:10:51.231Z,24.76
2018-08-08T16:13:19.730Z,25.55
2018-08-08T16:15:48.101Z,25.50
2018-08-08T16:18:16.502Z,25.63
2018-08-08T16:20:44.902Z,26.35
2018-08-08T16:23:13.286Z,26.04
2018-08-08T16:25:41.657Z,26.23
2018-08-08T16:28:10.046Z,26.36
2018-08-08T16:30:38.409Z,26.50
2018-08-08T16:33:06.901Z,26.82
2018-08-08T16:35:35.270Z,26.58
2018-08-08T16:38:03.662Z,26.41
2018-08-08T16:40:32.027Z,26.59
2018-08-08T16:43:00.423Z,26.64
2018-08-08T16:45:28.797Z,26.36
2018-08-08T16:47:57.178Z,25.56
2018-08-08T16:50:25.541Z,25.30
2018-08-08T16:52:53.927Z,25.16
2018-08-08T16:55:22.293Z,25.86
2018-08-08T16:57:50.685Z,26.12
2018-08-08T17:00:19.058Z,25.75
2018-08-08T17:02:47.525Z,25.96
2018-08-08T17:05:15.895Z,26.71
2018-08-08T17:07:44.277Z,26.76
2018-08-08T17:10:12.646Z,27.09
2018-08-08T17:12:41.052Z,27.19
2018-08-08T17:15:10.030Z,27.21
2018-08-08T17:17:38.427Z,27.89
2018-08-08T17:20:07.731Z,28.09
2018-08-08T17:22:36.135Z,27.60
2018-08-08T17:25:04.914Z,28.36
2018-08-08T17:27:33.322Z,28.05
2018-08-08T17:30:02.053Z,29.01
2018-08-08T17:32:30.441Z,28.85
2018-08-08T17:34:58.815Z,28.58
2018-08-08T17:37:27.197Z,29.57
2018-08-08T17:39:55.601Z,28.97
2018-08-08T17:42:23.995Z,30.21
2018-08-08T17:44:52.407Z,29.30
2018-08-08T17:47:20.777Z,29.81
2018-08-08T17:49:49.194Z,30.73
2018-08-08T17:52:17.573Z,30.22
2018-08-08T17:54:45.974Z,30.52
2018-08-08T17:57:14.350Z,30.00
2018-08-08T17:59:42.753Z,30.60
2018-08-08T18:02:11.151Z,30.88
2018-08-08T18:04:39.555Z,31.11
2018-08-08T18:07:07.937Z,31.04
2018-08-08T18:09:36.338Z,30.80
2018-08-08T18:12:04.776Z,30.89
2018-08-08T18:14:33.182Z,31.20
2018-08-08T18:17:01.563Z,31.87
2018-08-08T18:19:29.965Z,31.29
2018-08-08T18:21:58.354Z,31.73
2018-08-08T18:24:26.757Z,32.21
2018-08-08T18:26:55.146Z,32.50
2018-08-08T18:29:23.544Z,32.27
2018-08-08T18:31:52.014Z,32.04
2018-08-08T18:34:20.398Z,32.18
2018-08-08T18:36:48.763Z,32.18
2018-08-08T18:39:17.162Z,32.26
2018-08-08T18:41:45.538Z,32.47
2018-08-08T18:44:13.953Z,32.20
2018-08-08T18:46:42.322Z,32.49
2018-08-08T18:49:10.780Z,32.75
2018-08-08T18:51:39.172Z,33.64
2018-08-08T18:54:07.869Z,34.19
2018-08-08T18:56:36.239Z,34.09
2018-08-08T18:59:04.629Z,35.15
2018-08-08T19:01:33.000Z,34.83
2018-08-08T19:04:01.427Z,35.46
2018-08-08T19:06:30.282Z,36.06
2018-08-08T19:08:58.669Z,36.41
2018-08-08T19:11:27.029Z,36.44
2018-08-08T19:13:55.448Z,36.75
2018-08-08T19:16:23.824Z,36.42
2018-08-08T19:18:52.218Z,36.25
2018-08-08T19:21:20.589Z,36.21
2018-08-08T19:23:48.973Z,37.60
2018-08-08T19:26:17.374Z,37.56
2018-08-08T19:28:45.783Z,37.81
2018-08-08T19:31:14.155Z,38.08
2018-08-08T19:33:42.566Z,38.16
2018-08-08T19:36:10.929Z,37.68
2018-08-08T19:38:39.306Z,38.90
2018-08-08T19:41:07.697Z,39.18
2018-08-08T19:43:36.062Z,39.41
2018-08-08T19:46:04.445Z,39.09
2018-08-08T19:48:32.805Z,38.55
2018-08-08T19:51:01.194Z,38.64
2018-08-08T19:53:30.269Z,40.10
2018-08-08T19:55:58.653Z,38.95
2018-08-08T19:58:27.018Z,39.26
2018-08-08T20:00:55.450Z,39.95
2018-08-08T20:03:24.210Z,40.25
2018-08-08T20:05:52.805Z,40.50
2018-08-08T20:08:27.301Z,41.06
2018-08-08T20:10:56.738Z,39.90
2018-08-08T20:13:25.129Z,39.92
2018-08-08T20:15:55.745Z,41.12
2018-08-08T20:18:24.613Z,41.04
2018-08-08T20:20:53.531Z,40.45
2018-08-08T20:23:22.185Z,41.58
2018-08-08T20:25:50.585Z,41.02
2018-08-08T20:28:19.350Z,42.26
2018-08-08T20:30:48.887Z,41.92
2018-08-08T20:33:17.963Z,41.87
2018-08-08T20:35:46.373Z,41.49
2018-08-08T20:38:14.754Z,42.29
2018-08-08T20:40:43.522Z,43.32
2018-08-08T20:43:11.898Z,42.54
2018-08-08T20:45:40.490Z,43.42
2018-08-08T20:48:08.866Z,43.60
2018-08-08T20:50:37.253Z,43.26
2018-08-08T20:53:05.621Z,44.13
2018-08-08T20:55:34.017Z,44.04
2018-08-08T20:58:02.571Z,43.42
2018-08-08T21:00:30.971Z,44.77
2018-08-08T21:02:59.337Z,43.94
2018-08-08T21:05:27.736Z,44.38
2018-08-08T21:07:56.126Z,44.58
2018-08-08T21:10:24.506Z,44.41
2018-08-08T21:12:52.895Z,44.94
2018-08-08T21:15:21.291Z,43.86
2018-08-08T21:17:49.662Z,43.95
2018-08-08T21:20:18.045Z,44.07
2018-08-08T21:22:46.422Z,44.30
2018-08-08T21:25:14.822Z,45.44
2018-08-08T21:27:43.198Z,46.18
2018-08-08T21:30:11.634Z,47.11
2018-08-08T21:32:39.993Z,46.47
2018-08-08T21:35:08.382Z,46.68
2018-08-08T21:37:36.750Z,47.84
2018-08-08T21:40:05.476Z,48.43
2018-08-08T21:42:33.856Z,48.78
2018-08-08T21:45:02.225Z,49.52
2018-08-08T21:47:30.616Z,49.44
2018-08-08T21:49:58.999Z,49.15
2018-08-08T21:52:27.402Z,48.84
2018-08-08T21:55:06.893Z,49.26
2018-08-08T21:57:46.669Z,49.88
2018-08-08T22:00:28.201Z,49.75
2018-08-08T22:04:10.826Z,51.70
2018-08-08T22:06:50.489Z,51.56
2018-08-08T22:09:30.348Z,52.10
2018-08-08T22:12:14.845Z,52.68
2018-08-08T22:14:54.597Z,52.79
2018-08-08T22:17:34.315Z,54.87
2018-08-08T22:20:02.707Z,55.06
2018-08-08T22:22:31.097Z,56.14
2018-08-08T22:24:59.495Z,56.67
2018-08-08T22:27:27.885Z,55.93
2018-08-08T22:29:56.266Z,57.67
2018-08-08T22:32:25.665Z,57.76
2018-08-08T22:34:54.037Z,57.88
2018-08-08T22:37:22.428Z,58.47
2018-08-08T22:39:50.823Z,58.83
2018-08-08T22:42:19.214Z,59.15
2018-08-08T22:44:47.577Z,59.12
2018-08-08T22:47:15.973Z,58.31
2018-08-08T22:49:44.339Z,58.94
2018-08-08T22:52:12.736Z,60.13
2018-08-08T22:54:41.113Z,59.29
2018-08-08T22:57:09.523Z,60.71
2018-08-08T22:59:37.891Z,59.77
2018-08-08T23:02:06.430Z,60.65
2018-08-08T23:04:34.810Z,61.53
2018-08-08T23:07:03.218Z,60.91
2018-08-08T23:09:31.602Z,61.36
2018-08-08T23:12:00.000Z,61.94
2018-08-08T23:14:28.397Z,61.46
2018-08-08T23:16:56.768Z,61.86
2018-08-08T23:19:25.162Z,62.68
2018-08-08T23:21:53.542Z,62.44
2018-08-08T23:24:21.937Z,63.12
2018-08-08T23:26:50.314Z,62.79
2018-08-08T23:29:18.706Z,62.42
2018-08-08T23:31:47.077Z,63.46
2018-08-08T23:34:15.476Z,63.77
2018-08-08T23:36:43.858Z,63.70
2018-08-08T23:39:12.258Z,64.19
2018-08-08T23:41:40.625Z,64.39
2018-08-08T23:44:09.025Z,64.42
2018-08-08T23:46:37.399Z,63.82
2018-08-08T23:49:05.791Z,64.71
2018-08-08T23:51:34.207Z,64.40
2018-08-08T23:54:02.601Z,65.23
2018-08-08T23:56:30.974Z,65.30
2018-08-08T23:58:59.372Z,64.70
